createdAt,value
2023-05-03T00:00:39.575Z,22.04
2023-05-03T00:03:06.882Z,22.04
2023-05-03T00:05:33.413Z,22.03
2023-05-03T00:08:00.985Z,22.02
2023-05-03T00:10:27.333Z,22.02
2023-05-03T00:12:55.442Z,22.02
2023-05-03T00:15:21.820Z,22.02
2023-05-03T00:17:48.241Z,22.02
2023-05-03T00:20:15.366Z,22.01
2023-05-03T00:22:41.824Z,22.03
2023-05-03T00:25:09.176Z,22.01
2023-05-03T00:27:36.308Z,22.01
2023-05-03T00:30:03.143Z,22.01
2023-05-03T00:32:29.899Z,22.00
2023-05-03T00:34:57.105Z,21.99
2023-05-03T00:37:24.435Z,22.00
2023-05-03T00:39:50.925Z,22.00
2023-05-03T00:42:17.249Z,22.00
2023-05-03T00:44:43.704Z,21.98
2023-05-03T00:47:10.740Z,21.98
2023-05-03T00:49:37.327Z,21.98
2023-05-03T00:52:03.704Z,21.99
2023-05-03T00:54:30.559Z,21.98
2023-05-03T00:56:57.423Z,21.98
2023-05-03T00:59:24.035Z,21.98
2023-05-03T01:01:51.507Z,21.98
2023-05-03T01:04:18.937Z,21.97
2023-05-03T01:06:52.497Z,21.99
2023-05-03T01:09:19.010Z,21.99
2023-05-03T01:12:14.908Z,21.98
2023-05-03T01:14:47.015Z,22.01
2023-05-03T01:17:14.259Z,22.04
2023-05-03T01:19:51.813Z,22.06
2023-05-03T01:22:32.170Z,22.07
2023-05-03T01:25:16.613Z,22.06
2023-05-03T01:27:43.226Z,22.07
2023-05-03T01:30:10.654Z,22.06
2023-05-03T01:32:37.020Z,22.07
2023-05-03T01:35:15.924Z,22.07
2023-05-03T01:37:43.071Z,22.06
2023-05-03T01:40:10.825Z,22.05
2023-05-03T01:42:38.229Z,22.05
2023-05-03T01:45:05.048Z,22.06
2023-05-03T01:47:31.575Z,22.05
2023-05-03T01:49:58.020Z,22.05
2023-05-03T01:52:24.723Z,22.06
2023-05-03T01:54:51.191Z,22.08
2023-05-03T01:57:17.532Z,22.06
2023-05-03T01:59:43.864Z,22.04
2023-05-03T02:02:10.269Z,22.02
2023-05-03T02:04:36.672Z,22.03
2023-05-03T02:07:03.097Z,22.01
2023-05-03T02:09:29.449Z,21.99
2023-05-03T02:11:55.863Z,21.97
2023-05-03T02:14:22.300Z,21.96
2023-05-03T02:16:48.726Z,21.97
2023-05-03T02:19:15.086Z,21.97
2023-05-03T02:21:41.599Z,21.97
2023-05-03T02:24:08.009Z,21.95
2023-05-03T02:26:34.347Z,21.94
2023-05-03T02:29:00.690Z,21.93
2023-05-03T02:31:27.309Z,21.93
2023-05-03T02:33:55.026Z,21.92
2023-05-03T02:36:21.425Z,21.91
2023-05-03T02:38:47.761Z,21.89
2023-05-03T02:41:14.291Z,21.88
2023-05-03T02:43:40.685Z,21.88
2023-05-03T02:46:07.057Z,21.87
2023-05-03T02:48:33.486Z,21.86
2023-05-03T02:50:59.878Z,21.87
2023-05-03T02:53:26.395Z,21.85
2023-05-03T02:55:52.775Z,21.85
2023-05-03T02:58:19.198Z,21.84
2023-05-03T03:00:45.586Z,21.86
2023-05-03T03:03:12.164Z,21.86
2023-05-03T03:05:38.699Z,21.86
2023-05-03T03:08:05.663Z,21.85
2023-05-03T03:10:32.878Z,21.85
2023-05-03T03:12:59.359Z,21.85
2023-05-03T03:15:25.728Z,21.83
2023-05-03T03:17:52.141Z,21.83
2023-05-03T03:20:18.614Z,21.83
2023-05-03T03:22:45.477Z,21.83
2023-05-03T03:25:11.874Z,21.81
2023-05-03T03:27:39.746Z,21.81
2023-05-03T03:30:08.035Z,21.79
2023-05-03T03:32:34.573Z,21.79
2023-05-03T03:35:01.097Z,21.78
2023-05-03T03:37:27.524Z,21.77
2023-05-03T03:39:54.098Z,21.76
2023-05-03T03:42:22.092Z,21.76
2023-05-03T03:44:48.433Z,21.74
2023-05-03T03:47:14.832Z,21.75
2023-05-03T03:49:41.283Z,21.75
2023-05-03T03:52:07.898Z,21.74
2023-05-03T03:54:36.990Z,21.74
2023-05-03T03:57:03.723Z,21.72
2023-05-03T03:59:30.345Z,21.72
2023-05-03T04:01:56.967Z,21.72
2023-05-03T04:04:23.392Z,21.72
2023-05-03T04:06:49.915Z,21.71
2023-05-03T04:09:17.640Z,21.73
2023-05-03T04:11:44.594Z,21.73
2023-05-03T04:14:10.948Z,21.74
2023-05-03T04:16:37.307Z,21.73
2023-05-03T04:19:04.212Z,21.72
2023-05-03T04:21:30.578Z,21.72
2023-05-03T04:23:57.580Z,21.71
2023-05-03T04:26:31.703Z,21.71
2023-05-03T04:28:59.115Z,21.69
2023-05-03T04:31:25.754Z,21.69
2023-05-03T04:33:52.253Z,21.69
2023-05-03T04:36:19.080Z,21.70
2023-05-03T04:38:45.434Z,21.68
2023-05-03T04:41:14.129Z,21.69
2023-05-03T04:43:43.023Z,21.69
2023-05-03T04:46:09.480Z,21.71
2023-05-03T04:48:36.295Z,21.69
2023-05-03T04:51:02.765Z,21.70
2023-05-03T04:53:29.142Z,21.72
2023-05-03T04:55:55.596Z,21.71
2023-05-03T04:58:22.025Z,21.72
2023-05-03T05:00:49.077Z,21.72
2023-05-03T05:03:15.507Z,21.72
2023-05-03T05:05:42.092Z,21.72
2023-05-03T05:08:08.459Z,21.72
2023-05-03T05:10:43.634Z,21.72
2023-05-03T05:13:10.309Z,21.73
2023-05-03T05:15:36.714Z,21.74
2023-05-03T05:18:03.176Z,21.75
2023-05-03T05:20:29.591Z,21.75
2023-05-03T05:22:55.927Z,21.77
2023-05-03T05:25:22.299Z,21.79
2023-05-03T05:27:48.683Z,21.77
2023-05-03T05:30:15.180Z,21.79
2023-05-03T05:32:41.543Z,21.79
2023-05-03T05:35:08.134Z,21.81
2023-05-03T05:37:34.450Z,21.82
2023-05-03T05:40:01.214Z,21.83
2023-05-03T05:42:27.882Z,21.82
2023-05-03T05:44:54.337Z,21.81
2023-05-03T05:47:21.508Z,21.84
2023-05-03T05:49:48.212Z,21.83
2023-05-03T05:52:14.563Z,21.83
2023-05-03T05:54:40.982Z,21.86
2023-05-03T05:57:07.331Z,21.88
2023-05-03T05:59:33.684Z,21.91
2023-05-03T06:02:00.390Z,21.93
2023-05-03T06:04:27.274Z,21.95
2023-05-03T06:06:53.790Z,21.98
2023-05-03T06:09:24.790Z,22.00
2023-05-03T06:11:52.018Z,22.01
2023-05-03T06:14:20.541Z,22.01
2023-05-03T06:16:47.336Z,21.98
2023-05-03T06:19:14.333Z,22.00
2023-05-03T06:21:40.750Z,22.01
2023-05-03T06:24:07.145Z,22.03
2023-05-03T06:26:33.510Z,22.06
2023-05-03T06:29:00.883Z,22.07
2023-05-03T06:31:27.733Z,22.08
2023-05-03T06:36:20.924Z,22.12
2023-05-03T06:38:47.276Z,22.17
2023-05-03T06:41:13.636Z,22.22
2023-05-03T06:43:40.017Z,22.25
2023-05-03T06:46:06.830Z,22.26
2023-05-03T06:48:33.368Z,22.22
2023-05-03T06:50:59.834Z,22.25
2023-05-03T06:53:26.447Z,22.26
2023-05-03T06:55:52.826Z,22.25
2023-05-03T06:58:19.216Z,22.27
2023-05-03T07:00:46.695Z,22.26
2023-05-03T07:03:13.323Z,22.24
2023-05-03T07:05:40.291Z,22.22
2023-05-03T07:08:06.902Z,22.25
2023-05-03T07:10:33.332Z,22.24
2023-05-03T07:12:59.957Z,22.24
2023-05-03T07:15:26.292Z,22.27
2023-05-03T07:17:52.695Z,22.29
2023-05-03T07:20:19.128Z,22.30
2023-05-03T07:22:45.463Z,22.33
2023-05-03T07:25:14.282Z,22.34
2023-05-03T07:27:40.799Z,22.35
2023-05-03T07:30:08.043Z,22.35
2023-05-03T07:32:34.560Z,22.37
2023-05-03T07:35:01.000Z,22.39
2023-05-03T07:37:28.156Z,22.40
2023-05-03T07:39:54.550Z,22.41
2023-05-03T07:42:21.129Z,22.41
2023-05-03T07:44:47.525Z,22.42
2023-05-03T07:47:13.891Z,22.45
2023-05-03T07:49:40.351Z,22.47
2023-05-03T07:52:06.731Z,22.48
2023-05-03T07:54:33.105Z,22.47
2023-05-03T07:56:59.521Z,22.46
2023-05-03T07:59:25.955Z,22.46
2023-05-03T08:01:52.522Z,22.47
2023-05-03T08:04:19.712Z,22.48
2023-05-03T08:06:46.462Z,22.50
2023-05-03T08:09:14.141Z,22.52
2023-05-03T08:11:43.204Z,22.54
2023-05-03T08:14:10.454Z,22.54
2023-05-03T08:16:36.843Z,22.56
2023-05-03T08:19:05.098Z,22.56
2023-05-03T08:21:33.402Z,22.57
2023-05-03T08:24:00.890Z,22.58
2023-05-03T08:26:28.579Z,22.58
2023-05-03T08:28:55.199Z,22.59
2023-05-03T08:31:21.580Z,22.60
2023-05-03T08:33:48.091Z,22.63
2023-05-03T08:36:14.732Z,22.63
2023-05-03T08:38:44.107Z,22.60
2023-05-03T08:41:30.881Z,22.58
2023-05-03T08:43:58.092Z,22.55
2023-05-03T08:46:28.322Z,22.56
2023-05-03T08:48:55.159Z,22.56
2023-05-03T08:51:22.542Z,22.57
2023-05-03T08:53:49.395Z,22.58
2023-05-03T08:56:39.340Z,22.59
2023-05-03T08:59:09.203Z,22.61
2023-05-03T09:01:36.508Z,22.61
2023-05-03T09:04:04.235Z,22.62
2023-05-03T09:06:33.039Z,22.62
2023-05-03T09:08:59.899Z,22.65
2023-05-03T09:11:30.453Z,22.70
2023-05-03T09:14:09.602Z,22.70
2023-05-03T09:16:36.152Z,22.70
2023-05-03T09:19:05.028Z,22.69
2023-05-03T09:21:31.490Z,22.67
2023-05-03T09:23:58.079Z,22.67
2023-05-03T09:26:28.285Z,22.67
2023-05-03T09:28:56.489Z,22.67
2023-05-03T09:31:23.303Z,22.66
2023-05-03T09:33:49.905Z,22.66
2023-05-03T09:36:16.574Z,22.68
2023-05-03T09:38:43.162Z,22.67
2023-05-03T09:41:10.601Z,22.67
2023-05-03T09:43:47.767Z,22.68
2023-05-03T09:46:14.155Z,22.68
2023-05-03T09:48:41.081Z,22.69
2023-05-03T09:51:08.295Z,22.68
2023-05-03T09:53:36.329Z,22.69
2023-05-03T09:56:03.539Z,22.70
2023-05-03T09:58:35.214Z,22.71
2023-05-03T10:01:02.079Z,22.71
2023-05-03T10:03:32.399Z,22.68
2023-05-03T10:06:02.877Z,22.67
2023-05-03T10:08:40.547Z,22.67
2023-05-03T10:11:08.508Z,22.66
2023-05-03T10:13:35.650Z,22.65
2023-05-03T10:16:10.805Z,22.66
2023-05-03T10:19:03.639Z,22.66
2023-05-03T10:21:35.373Z,22.67
2023-05-03T10:24:12.999Z,22.67
2023-05-03T10:26:47.502Z,22.67
2023-05-03T10:29:29.003Z,22.66
2023-05-03T10:31:55.478Z,22.67
2023-05-03T10:34:23.117Z,22.67
2023-05-03T10:36:55.552Z,22.68
2023-05-03T10:39:22.167Z,22.68
2023-05-03T10:42:04.509Z,22.68
2023-05-03T10:44:41.164Z,22.68
2023-05-03T10:47:13.133Z,22.69
2023-05-03T10:49:39.509Z,22.68
2023-05-03T10:52:24.332Z,22.69
2023-05-03T10:54:51.018Z,22.69
2023-05-03T10:57:17.519Z,22.69
2023-05-03T10:59:49.067Z,22.69
2023-05-03T11:02:21.456Z,22.68
2023-05-03T11:04:50.146Z,22.69
2023-05-03T11:07:21.510Z,22.71
2023-05-03T11:09:47.979Z,22.70
2023-05-03T11:12:14.356Z,22.72
2023-05-03T11:14:41.742Z,22.72
2023-05-03T11:17:08.294Z,22.72
2023-05-03T11:19:35.251Z,22.72
2023-05-03T11:22:01.708Z,22.72
2023-05-03T11:24:28.125Z,22.71
2023-05-03T11:26:54.590Z,22.71
2023-05-03T11:29:21.933Z,22.71
2023-05-03T11:31:48.353Z,22.73
2023-05-03T11:34:15.785Z,22.73
2023-05-03T11:36:42.490Z,22.72
2023-05-03T11:39:09.350Z,22.73
2023-05-03T11:41:35.909Z,22.73
2023-05-03T11:44:15.445Z,22.73
2023-05-03T11:46:43.478Z,22.72
2023-05-03T11:49:10.063Z,22.73
2023-05-03T11:51:36.592Z,22.73
2023-05-03T11:54:17.043Z,22.73
2023-05-03T11:56:52.761Z,22.73
2023-05-03T11:59:20.065Z,22.73
2023-05-03T12:01:49.449Z,22.73
2023-05-03T12:04:16.886Z,22.72
2023-05-03T12:06:50.345Z,22.72
2023-05-03T12:09:18.441Z,22.73
2023-05-03T12:11:47.736Z,22.71
2023-05-03T12:14:16.173Z,22.72
2023-05-03T12:16:47.227Z,22.72
2023-05-03T12:19:23.500Z,22.72
2023-05-03T12:22:04.629Z,22.72
2023-05-03T12:24:39.135Z,22.71
2023-05-03T12:27:08.198Z,22.72
2023-05-03T12:29:35.731Z,22.72
2023-05-03T12:32:03.550Z,22.73
2023-05-03T12:34:35.036Z,22.71
2023-05-03T12:37:04.953Z,22.70
2023-05-03T12:39:33.073Z,22.72
2023-05-03T12:44:29.354Z,22.71
2023-05-03T12:46:57.389Z,22.71
2023-05-03T12:49:27.395Z,22.72
2023-05-03T12:54:27.382Z,22.71
2023-05-03T12:56:55.545Z,22.71
2023-05-03T12:59:39.973Z,22.70
2023-05-03T13:03:15.911Z,22.71
2023-05-03T13:04:59.969Z,22.72
2023-05-03T13:07:43.175Z,22.71
2023-05-03T13:12:39.777Z,22.72
2023-05-03T13:15:06.931Z,22.71
2023-05-03T13:17:33.548Z,22.70
2023-05-03T13:20:00.010Z,22.71
2023-05-03T13:22:27.074Z,22.69
2023-05-03T13:24:54.090Z,22.69
2023-05-03T13:27:20.573Z,22.69
2023-05-03T13:29:49.081Z,22.70
2023-05-03T13:32:16.198Z,22.70
2023-05-03T13:34:43.104Z,22.71
2023-05-03T13:37:09.546Z,22.71
2023-05-03T13:39:35.906Z,22.72
2023-05-03T13:42:02.419Z,22.72
2023-05-03T13:44:29.014Z,22.72
2023-05-03T13:46:56.383Z,22.72
2023-05-03T13:49:22.989Z,22.74
2023-05-03T13:51:49.444Z,22.74
2023-05-03T13:54:15.951Z,22.75
2023-05-03T13:56:43.092Z,22.75
2023-05-03T13:59:11.343Z,22.75
2023-05-03T14:01:38.298Z,22.75
2023-05-03T14:04:05.385Z,22.77
2023-05-03T14:06:33.563Z,22.77
2023-05-03T14:09:01.621Z,22.77
2023-05-03T14:11:29.814Z,22.75
2023-05-03T14:13:57.337Z,22.76
2023-05-03T14:16:36.413Z,22.77
2023-05-03T14:19:07.463Z,22.76
2023-05-03T14:21:34.222Z,22.75
2023-05-03T14:24:01.147Z,22.73
2023-05-03T14:26:29.637Z,22.72
2023-05-03T14:28:56.434Z,22.72
2023-05-03T14:31:22.821Z,22.73
2023-05-03T14:33:49.226Z,22.74
2023-05-03T14:36:15.879Z,22.75
2023-05-03T14:38:42.330Z,22.73
2023-05-03T14:41:09.360Z,22.73
2023-05-03T14:43:35.813Z,22.72
2023-05-03T14:46:02.384Z,22.72
2023-05-03T14:48:28.855Z,22.72
2023-05-03T14:50:56.380Z,22.73
2023-05-03T14:53:23.408Z,22.74
2023-05-03T14:55:50.139Z,22.73
2023-05-03T14:58:16.730Z,22.73
2023-05-03T15:00:43.531Z,22.73
2023-05-03T15:03:11.987Z,22.72
2023-05-03T15:05:45.455Z,22.72
2023-05-03T15:08:13.262Z,22.72
2023-05-03T15:10:39.852Z,22.72
2023-05-03T15:13:06.499Z,22.70
2023-05-03T15:15:33.044Z,22.71
2023-05-03T15:17:59.469Z,22.71
2023-05-03T15:20:26.298Z,22.71
2023-05-03T15:22:52.677Z,22.71
2023-05-03T15:25:19.223Z,22.70
2023-05-03T15:27:45.687Z,22.69
2023-05-03T15:30:12.447Z,22.67
2023-05-03T15:32:38.962Z,22.67
2023-05-03T15:35:05.961Z,22.66
2023-05-03T15:37:37.124Z,22.66
2023-05-03T15:40:04.745Z,22.65
2023-05-03T15:42:31.888Z,22.65
2023-05-03T15:44:58.372Z,22.65
2023-05-03T15:47:24.760Z,22.64
2023-05-03T15:49:51.163Z,22.63
2023-05-03T15:52:17.527Z,22.65
2023-05-03T15:54:43.914Z,22.63
2023-05-03T15:57:10.540Z,22.62
2023-05-03T15:59:36.926Z,22.63
2023-05-03T16:02:03.884Z,22.62
2023-05-03T16:04:30.453Z,22.62
2023-05-03T16:06:58.004Z,22.60
2023-05-03T16:09:24.400Z,22.60
2023-05-03T16:11:50.822Z,22.60
2023-05-03T16:14:17.199Z,22.58
2023-05-03T16:16:46.453Z,22.59
2023-05-03T16:19:13.769Z,22.57
2023-05-03T16:21:40.177Z,22.56
2023-05-03T16:24:06.886Z,22.55
2023-05-03T16:26:34.577Z,22.55
2023-05-03T16:29:01.224Z,22.56
2023-05-03T16:31:31.115Z,22.55
2023-05-03T16:33:57.588Z,22.55
2023-05-03T16:36:24.257Z,22.55
2023-05-03T16:38:50.701Z,22.55
2023-05-03T16:41:17.174Z,22.54
2023-05-03T16:43:43.602Z,22.54
2023-05-03T16:46:10.280Z,22.54
2023-05-03T16:48:36.720Z,22.55
2023-05-03T16:51:03.199Z,22.54
2023-05-03T16:53:29.588Z,22.55
2023-05-03T16:55:56.549Z,22.55
2023-05-03T16:58:22.912Z,22.55
2023-05-03T17:00:49.395Z,22.56
2023-05-03T17:03:16.254Z,22.54
2023-05-03T17:05:42.909Z,22.55
2023-05-03T17:08:09.318Z,22.54
2023-05-03T17:10:36.364Z,22.54
2023-05-03T17:13:03.626Z,22.54
2023-05-03T17:15:32.705Z,22.53
2023-05-03T17:18:00.675Z,22.51
2023-05-03T17:20:28.322Z,22.49
2023-05-03T17:22:54.709Z,22.49
2023-05-03T17:25:21.283Z,22.47
2023-05-03T17:27:48.366Z,22.48
2023-05-03T17:30:14.987Z,22.47
2023-05-03T17:32:41.560Z,22.45
2023-05-03T17:35:08.191Z,22.42
2023-05-03T17:37:34.734Z,22.40
2023-05-03T17:40:01.403Z,22.40
2023-05-03T17:42:27.833Z,22.38
2023-05-03T17:44:54.811Z,22.37
2023-05-03T17:47:21.358Z,22.37
2023-05-03T17:49:47.759Z,22.36
2023-05-03T17:52:14.140Z,22.35
2023-05-03T17:54:40.750Z,22.36
2023-05-03T17:57:07.152Z,22.37
2023-05-03T17:59:33.524Z,22.37
2023-05-03T18:02:00.821Z,22.35
2023-05-03T18:04:27.379Z,22.35
2023-05-03T18:06:53.840Z,22.34
2023-05-03T18:09:20.295Z,22.34
2023-05-03T18:11:47.931Z,22.34
2023-05-03T18:14:14.752Z,22.34
2023-05-03T18:16:42.157Z,22.34
2023-05-03T18:19:08.584Z,22.32
2023-05-03T18:21:35.538Z,22.32
2023-05-03T18:24:02.576Z,22.29
2023-05-03T18:26:29.049Z,22.29
2023-05-03T18:28:55.399Z,22.30
2023-05-03T18:31:21.814Z,22.30
2023-05-03T18:33:48.835Z,22.31
2023-05-03T18:36:15.592Z,22.31
2023-05-03T18:38:43.000Z,22.30
2023-05-03T18:41:13.878Z,22.30
2023-05-03T18:43:44.342Z,22.29
2023-05-03T18:46:11.389Z,22.30
2023-05-03T18:48:37.803Z,22.29
2023-05-03T18:51:04.785Z,22.28
2023-05-03T18:53:31.889Z,22.28
2023-05-03T18:55:58.431Z,22.28
2023-05-03T18:58:24.777Z,22.27
2023-05-03T19:00:51.435Z,22.28
2023-05-03T19:03:17.813Z,22.28
2023-05-03T19:05:44.237Z,22.26
2023-05-03T19:08:10.640Z,22.27
2023-05-03T19:10:37.062Z,22.26
2023-05-03T19:13:03.531Z,22.26
2023-05-03T19:15:30.066Z,22.25
2023-05-03T19:17:56.836Z,22.24
2023-05-03T19:20:23.361Z,22.25
2023-05-03T19:22:49.798Z,22.24
2023-05-03T19:25:16.607Z,22.22
2023-05-03T19:27:43.031Z,22.20
2023-05-03T19:30:09.720Z,22.20
2023-05-03T19:32:39.025Z,22.19
2023-05-03T19:35:09.030Z,22.18
2023-05-03T19:37:35.632Z,22.18
2023-05-03T19:40:02.548Z,22.17
2023-05-03T19:42:29.489Z,22.16
2023-05-03T19:44:56.332Z,22.15
2023-05-03T19:47:22.793Z,22.13
2023-05-03T19:49:49.258Z,22.12
2023-05-03T19:54:42.114Z,22.09
2023-05-03T19:57:08.596Z,22.09
2023-05-03T19:59:35.337Z,22.09
2023-05-03T20:02:01.916Z,22.09
2023-05-03T20:04:28.551Z,22.08
2023-05-03T20:06:55.008Z,22.08
2023-05-03T20:09:23.458Z,22.07
2023-05-03T20:11:50.549Z,22.05
2023-05-03T20:14:16.957Z,22.05
2023-05-03T20:16:43.421Z,22.04
2023-05-03T20:19:10.233Z,22.03
2023-05-03T20:21:36.612Z,22.04
2023-05-03T20:24:04.677Z,22.04
2023-05-03T20:26:31.101Z,22.02
2023-05-03T20:28:57.414Z,22.02
2023-05-03T20:31:23.800Z,22.02
2023-05-03T20:33:50.293Z,22.02
2023-05-03T20:36:16.667Z,22.01
2023-05-03T20:38:43.200Z,22.00
2023-05-03T20:41:09.655Z,22.01
2023-05-03T20:43:35.986Z,22.00
2023-05-03T20:46:02.561Z,22.00
2023-05-03T20:48:29.118Z,22.00
2023-05-03T20:50:55.600Z,21.99
2023-05-03T20:53:22.053Z,21.99
2023-05-03T20:55:54.455Z,21.98
2023-05-03T20:58:20.886Z,21.97
2023-05-03T21:00:47.359Z,21.96
2023-05-03T21:03:14.502Z,21.96
2023-05-03T21:05:40.998Z,21.95
2023-05-03T21:08:07.422Z,21.94
2023-05-03T21:10:33.832Z,21.94
2023-05-03T21:13:00.295Z,21.93
2023-05-03T21:15:26.715Z,21.93
2023-05-03T21:17:53.160Z,21.93
2023-05-03T21:20:19.733Z,21.92
2023-05-03T21:22:46.166Z,21.92
2023-05-03T21:25:12.518Z,21.89
2023-05-03T21:27:38.873Z,21.90
2023-05-03T21:30:05.677Z,21.90
2023-05-03T21:32:33.263Z,21.88
2023-05-03T21:34:59.676Z,21.88
2023-05-03T21:37:26.413Z,21.87
2023-05-03T21:40:01.056Z,21.89
2023-05-03T21:42:28.707Z,21.92
2023-05-03T21:44:55.766Z,21.96
2023-05-03T21:47:22.202Z,21.97
2023-05-03T21:49:48.546Z,22.00
2023-05-03T21:52:14.898Z,21.98
2023-05-03T21:54:41.213Z,21.86
2023-05-03T21:57:07.578Z,21.71
2023-05-03T21:59:33.946Z,21.74
2023-05-03T22:02:00.998Z,21.84
2023-05-03T22:04:27.477Z,21.91
2023-05-03T22:06:53.860Z,21.95
2023-05-03T22:09:20.185Z,21.97
2023-05-03T22:11:46.662Z,22.03
2023-05-03T22:14:13.002Z,22.04
2023-05-03T22:16:41.983Z,22.04
2023-05-03T22:19:08.874Z,22.05
2023-05-03T22:21:35.651Z,22.07
2023-05-03T22:24:02.768Z,22.06
2023-05-03T22:26:29.838Z,22.07
2023-05-03T22:28:56.446Z,22.06
2023-05-03T22:31:22.872Z,22.07
2023-05-03T22:33:49.308Z,22.08
2023-05-03T22:36:16.049Z,22.09
2023-05-03T22:38:43.207Z,22.10
2023-05-03T22:41:09.989Z,22.09
2023-05-03T22:43:36.586Z,22.10
2023-05-03T22:46:03.099Z,22.13
2023-05-03T22:48:29.814Z,22.13
2023-05-03T22:50:57.649Z,22.13
2023-05-03T22:55:57.170Z,22.13
2023-05-03T22:58:24.385Z,22.12
2023-05-03T23:00:50.838Z,22.13
2023-05-03T23:03:17.379Z,22.13
2023-05-03T23:05:43.887Z,22.12
2023-05-03T23:08:11.096Z,22.11
2023-05-03T23:13:03.862Z,22.10
2023-05-03T23:15:30.253Z,22.10
2023-05-03T23:17:56.897Z,22.12
2023-05-03T23:20:23.382Z,22.14
2023-05-03T23:22:49.737Z,22.14
2023-05-03T23:25:16.672Z,22.14
2023-05-03T23:27:43.446Z,22.15
2023-05-03T23:30:10.205Z,22.14
2023-05-03T23:32:37.315Z,22.16
2023-05-03T23:35:04.092Z,22.15
2023-05-03T23:37:30.535Z,22.15
2023-05-03T23:39:57.279Z,22.16
2023-05-03T23:42:23.625Z,22.16
2023-05-03T23:44:54.988Z,22.13
2023-05-03T23:47:22.053Z,22.15
2023-05-03T23:49:48.444Z,22.14
2023-05-03T23:52:16.925Z,22.13
2023-05-03T23:54:43.458Z,22.12
2023-05-03T23:57:10.133Z,22.15
2023-05-03T23:59:36.570Z,22.13
